Elburn, Illinois
Current Conditions -  °F | °C
As of 3:52 AM on Friday 24 Oct 2014 (Local Time) from KARR Reporting Station
Broken Clouds Broken Clouds  
Wind Chill: 48°   Ceiling: 2600
Heat Index: 48°   Visibility: 7mi
Dew Point: 43°   Wind: 3mph
Humidity: 83%   Direction: 190°S
Pressure: 30.05"   Gusts: NA
Location:  41.89°N, 88.47°W
Report Text: KARR 240852Z AUTO 19003KT 7SM BKN026 09/06 A3005 RMK AO2 SLP177 T00890061 58000
Loading
Personal Weather Stations






























Interactive Weather Map
Tropical Storm Tracking
New forecast layout! Learn more

10-Day Weather Forecast

Advertisements
Track Severe Weather on mobile